Time,TemperatureF,DewpointF,PressureIn,WindDirection,WindDirectionDegrees,WindSpeedMPH,WindSpeedGustMPH,Humidity,HourlyPrecipIn,Conditions,Clouds,dailyrainin,SoftwareType,DateUTC
2013-01-02 00:00:00,46.4,45.6,29.98,NNE,22,2.0,9.0,97,0.11,,OVC,0.04,VWS V14.01,2013-01-02 05:00:00,
2013-01-02 01:00:00,45.6,44.5,29.93,North,0,3.0,9.0,96,0.06,,OVC,0.10,VWS V14.01,2013-01-02 06:00:00,
2013-01-02 02:00:00,45.6,44.5,29.93,North,0,3.0,9.0,96,0.06,,OVC,0.10,VWS V14.01,2013-01-02 07:00:00,
2013-01-02 03:00:00,45.5,44.2,29.95,NNE,22,1.0,10.0,95,0.03,,OVC,0.10,VWS V14.01,2013-01-02 08:00:00,
2013-01-02 04:00:00,44.5,42.9,29.96,North,0,4.0,12.0,94,0.01,,OVC,0.11,VWS V14.01,2013-01-02 09:00:00,
2013-01-02 05:00:00,41.6,39.5,29.98,North,0,5.0,16.0,92,0.01,,OVC,0.11,VWS V14.01,2013-01-02 10:00:00,
2013-01-02 06:00:00,41.8,38.5,29.99,North,0,5.0,14.0,88,0.00,,OVC,0.11,VWS V14.01,2013-01-02 11:00:00,
2013-01-02 07:00:00,43.8,39.3,29.99,North,0,4.0,13.0,84,0.00,,OVC,0.11,VWS V14.01,2013-01-02 12:00:00,
2013-01-02 08:00:00,40.7,37.7,30.01,NNE,22,3.0,13.0,89,0.00,,OVC,0.11,VWS V14.01,2013-01-02 13:00:00,
2013-01-02 09:00:00,38.6,36.8,30.04,North,0,7.0,16.0,93,0.00,,OVC,0.11,VWS V14.01,2013-01-02 14:00:00,
2013-01-02 10:00:00,38.7,36.8,30.07,NNE,22,6.0,16.0,93,0.00,,OVC,0.11,VWS V14.01,2013-01-02 15:00:00,
2013-01-02 11:00:00,40.0,37.6,30.07,NE,45,3.0,11.0,91,0.00,,OVC,0.11,VWS V14.01,2013-01-02 16:00:00,
2013-01-02 12:00:00,42.5,38.9,30.06,SSW,202,1.0,6.0,87,0.00,,OVC,0.11,VWS V14.01,2013-01-02 17:00:00,
2013-01-02 13:00:00,44.1,39.3,30.04,NNE,22,0.0,5.0,83,0.00,,OVC,0.11,VWS V14.01,2013-01-02 18:00:00,
2013-01-02 14:00:00,45.1,39.6,30.04,NW,315,0.0,2.0,81,0.00,,OVC,0.11,VWS V14.01,2013-01-02 19:00:00,
2013-01-02 15:00:00,45.2,40.0,30.05,NW,315,0.0,2.0,82,0.00,,OVC,0.11,VWS V14.01,2013-01-02 20:00:00,
2013-01-02 16:00:00,44.7,39.9,30.05,WNW,292,0.0,1.0,83,0.00,,OVC,0.11,VWS V14.01,2013-01-02 21:00:00,
2013-01-02 17:00:00,43.9,39.7,30.07,WNW,292,0.0,0.0,85,0.00,,OVC,0.11,VWS V14.01,2013-01-02 22:00:00,
2013-01-02 18:00:00,42.8,39.5,30.09,WNW,292,0.0,1.0,88,0.00,,OVC,0.11,VWS V14.01,2013-01-02 23:00:00,
2013-01-02 19:00:00,42.0,38.4,30.10,WNW,292,0.0,2.0,87,0.00,,OVC,0.11,VWS V14.01,2013-01-03 00:00:00,
2013-01-02 20:00:00,42.0,38.7,30.11,SSE,158,0.0,2.0,88,0.00,,OVC,0.11,VWS V14.01,2013-01-03 01:00:00,
2013-01-02 21:00:00,41.6,38.9,30.13,SSE,158,0.0,0.0,90,0.00,,OVC,0.11,VWS V14.01,2013-01-03 02:00:00,
2013-01-02 22:00:00,41.0,38.0,30.14,SSE,158,0.0,1.0,89,0.00,,OVC,0.11,VWS V14.01,2013-01-03 03:00:00,
2013-01-02 23:00:00,40.5,38.6,30.14,SSE,158,0.0,2.0,93,0.00,,OVC,0.11,VWS V14.01,2013-01-03 04:00:00,